Time;durP1;ratioP1;P1;durP2;ratioP2;P2;SDS_P1;SDS_P2;PMS_P1;PMS_P2;Temp;Humidity;BMP_temperature;BMP_pressure;BME280_temperature;BME280_humidity;BME280_pressure;Samples;Min_cycle;Max_cycle;Signal;HPM_P1;HPM_P2
2020/12/14 00:01:20;;;;;;;6.33;5.27;;;1.50;98.80;;;;;;6199060;28;20047;-75
2020/12/14 00:04:21;;;;;;;9.30;4.30;;;1.50;98.70;;;;;;6199877;28;20112;-75
2020/12/14 00:07:22;;;;;;;9.17;5.60;;;1.50;98.90;;;;;;6198530;28;20129;-75
2020/12/14 00:10:25;;;;;;;10.37;7.33;;;1.50;98.90;;;;;;6217051;28;20033;-75
2020/12/14 00:13:26;;;;;;;11.17;6.77;;;1.50;99.00;;;;;;6230365;28;20046;-75
2020/12/14 00:16:27;;;;;;;9.03;6.20;;;1.50;98.60;;;;;;6230201;28;20038;-75
2020/12/14 00:19:28;;;;;;;7.87;5.87;;;1.50;98.70;;;;;;6266313;28;20030;-75
2020/12/14 00:22:31;;;;;;;8.53;6.40;;;1.50;98.80;;;;;;6278954;28;20093;-76
2020/12/14 00:25:33;;;;;;;7.20;5.67;;;1.50;99.00;;;;;;6277868;28;20064;-75
2020/12/14 00:28:34;;;;;;;10.70;4.83;;;1.50;98.90;;;;;;6271356;28;20399;-75
2020/12/14 00:31:35;;;;;;;6.60;4.87;;;1.40;98.80;;;;;;6245784;28;20172;-75
2020/12/14 00:34:37;;;;;;;8.30;6.33;;;1.40;98.80;;;;;;6245427;28;20167;-75
2020/12/14 00:37:38;;;;;;;7.97;4.87;;;1.30;98.70;;;;;;6245173;28;20051;-75
2020/12/14 00:40:40;;;;;;;10.80;5.80;;;1.30;98.80;;;;;;6245421;28;20140;-75
2020/12/14 00:43:41;;;;;;;9.33;5.27;;;1.30;98.70;;;;;;6245476;28;20041;-75
2020/12/14 00:46:45;;;;;;;9.73;6.50;;;1.20;98.70;;;;;;6245071;28;20053;-75
2020/12/14 00:49:46;;;;;;;6.43;5.67;;;1.20;98.70;;;;;;6244916;28;20426;-75
2020/12/14 00:52:48;;;;;;;8.50;4.60;;;1.30;98.70;;;;;;6245048;28;20521;-76
2020/12/14 00:55:50;;;;;;;6.57;5.07;;;1.20;98.40;;;;;;6245431;28;20132;-75
2020/12/14 00:58:51;;;;;;;6.13;5.17;;;1.10;98.50;;;;;;6244708;28;20052;-75
2020/12/14 01:01:53;;;;;;;10.47;5.27;;;1.00;98.60;;;;;;6244028;28;20057;-75
2020/12/14 01:04:54;;;;;;;7.30;5.77;;;1.00;98.80;;;;;;6245091;28;20053;-75
2020/12/14 01:07:56;;;;;;;8.33;5.07;;;1.00;98.80;;;;;;6229085;28;20046;-75
2020/12/14 01:10:58;;;;;;;8.13;5.37;;;1.00;99.00;;;;;;6196065;28;20467;-75
2020/12/14 01:13:59;;;;;;;12.97;4.13;;;1.00;99.10;;;;;;6196340;28;20177;-75
2020/12/14 01:17:00;;;;;;;6.13;4.73;;;0.90;99.10;;;;;;6196251;28;20128;-75
2020/12/14 01:20:02;;;;;;;4.90;4.40;;;1.00;99.30;;;;;;6196430;28;20559;-75
2020/12/14 01:23:03;;;;;;;5.87;4.73;;;1.00;99.30;;;;;;6195956;28;20046;-75
2020/12/14 01:26:05;;;;;;;7.50;5.00;;;1.10;99.40;;;;;;6195822;28;20057;-75
2020/12/14 01:29:07;;;;;;;6.07;4.93;;;1.10;99.20;;;;;;6195324;28;20610;-75
2020/12/14 01:32:08;;;;;;;7.20;4.97;;;1.10;99.20;;;;;;6196097;28;20137;-75
2020/12/14 01:35:09;;;;;;;6.90;4.60;;;1.20;99.20;;;;;;6195483;28;20042;-75
2020/12/14 01:38:11;;;;;;;4.93;3.97;;;1.20;99.00;;;;;;6198934;28;20046;-75
2020/12/14 01:41:13;;;;;;;5.50;4.27;;;1.10;99.00;;;;;;6200233;28;20596;-75
2020/12/14 01:44:14;;;;;;;6.33;4.70;;;1.10;99.00;;;;;;6201043;28;20141;-75
2020/12/14 01:47:23;;;;;;;11.10;4.67;;;1.10;99.10;;;;;;6199960;28;20177;-75
2020/12/14 01:50:24;;;;;;;6.13;4.23;;;1.10;99.10;;;;;;6200180;28;20606;-75
2020/12/14 01:53:30;;;;;;;8.20;4.27;;;1.10;99.20;;;;;;6200017;28;20145;-75
2020/12/14 01:56:33;;;;;;;4.57;3.67;;;1.20;99.20;;;;;;6200348;28;20644;-75
2020/12/14 01:59:34;;;;;;;5.93;4.47;;;1.20;99.20;;;;;;6199956;28;20153;-75
2020/12/14 02:02:36;;;;;;;6.57;3.60;;;1.20;99.20;;;;;;6199988;28;20050;-75
2020/12/14 02:05:37;;;;;;;4.17;3.63;;;1.20;99.30;;;;;;6199871;28;20097;-75
2020/12/14 02:08:38;;;;;;;5.63;4.40;;;1.30;99.30;;;;;;6199809;28;20188;-75
2020/12/14 02:11:40;;;;;;;7.73;4.03;;;1.30;99.20;;;;;;6200553;28;20153;-74
2020/12/14 02:14:42;;;;;;;6.00;4.43;;;1.30;99.10;;;;;;6199898;28;20172;-75
2020/12/14 02:17:43;;;;;;;5.77;4.33;;;1.30;99.00;;;;;;6199796;28;20181;-75
2020/12/14 02:20:44;;;;;;;4.30;3.53;;;1.40;99.00;;;;;;6200157;28;20050;-75
2020/12/14 02:23:46;;;;;;;6.50;3.53;;;1.30;99.00;;;;;;6200362;28;20759;-75
2020/12/14 02:26:48;;;;;;;6.23;4.83;;;1.30;98.90;;;;;;6199237;28;20050;-75
2020/12/14 02:29:50;;;;;;;3.90;3.50;;;1.20;98.90;;;;;;6199535;28;20054;-75
2020/12/14 02:32:51;;;;;;;5.30;4.33;;;1.20;98.80;;;;;;6199437;28;20042;-75
2020/12/14 02:35:52;;;;;;;6.10;3.90;;;1.20;98.80;;;;;;6199856;28;20504;-75
2020/12/14 02:38:54;;;;;;;6.23;4.43;;;1.10;98.90;;;;;;6198899;28;20057;-75
2020/12/14 02:41:56;;;;;;;5.83;4.03;;;1.10;98.80;;;;;;6199717;28;20050;-74
2020/12/14 02:44:57;;;;;;;5.10;3.77;;;1.10;98.90;;;;;;6199489;28;20145;-75
2020/12/14 02:47:58;;;;;;;5.13;3.83;;;1.10;99.00;;;;;;6198298;28;20193;-75
2020/12/14 02:51:00;;;;;;;3.97;3.33;;;1.00;99.00;;;;;;6199073;28;20121;-75
2020/12/14 02:54:01;;;;;;;11.80;7.03;;;1.00;99.00;;;;;;6198756;28;20177;-75
2020/12/14 02:57:03;;;;;;;4.87;3.87;;;1.00;99.10;;;;;;6198642;28;20508;-75
2020/12/14 03:00:06;;;;;;;7.30;5.33;;;1.00;99.10;;;;;;6198989;28;20077;-75
2020/12/14 03:03:07;;;;;;;5.07;3.97;;;1.10;99.00;;;;;;6198588;28;20065;-75
2020/12/14 03:06:09;;;;;;;4.40;4.00;;;1.10;98.80;;;;;;6198340;28;20126;-75
2020/12/14 03:09:10;;;;;;;4.53;3.50;;;1.00;98.60;;;;;;6198682;28;20042;-75
2020/12/14 03:12:13;;;;;;;4.50;3.70;;;1.00;98.70;;;;;;6199198;28;20056;-75
2020/12/14 03:15:14;;;;;;;8.93;3.87;;;0.90;98.60;;;;;;6199123;28;20177;-75
2020/12/14 03:18:15;;;;;;;7.43;3.37;;;0.90;98.80;;;;;;6199209;28;20050;-75
2020/12/14 03:21:17;;;;;;;5.57;3.43;;;0.80;98.80;;;;;;6198111;28;20125;-75
2020/12/14 03:24:18;;;;;;;6.80;3.87;;;0.80;98.90;;;;;;6198593;28;20050;-75
2020/12/14 03:27:20;;;;;;;4.63;3.70;;;0.80;99.10;;;;;;6198235;28;20133;-75
2020/12/14 03:30:21;;;;;;;3.90;3.23;;;0.80;99.10;;;;;;6198366;28;20205;-75
2020/12/14 03:33:23;;;;;;;3.90;3.20;;;0.70;99.00;;;;;;6198026;28;20058;-75
2020/12/14 03:36:24;;;;;;;22.70;4.97;;;0.70;99.10;;;;;;6198003;28;20752;-75
2020/12/14 03:39:25;;;;;;;5.07;4.53;;;0.70;99.10;;;;;;6197544;28;20061;-75
2020/12/14 03:42:29;;;;;;;5.03;3.77;;;0.70;99.00;;;;;;6197746;28;20420;-75
2020/12/14 03:45:31;;;;;;;5.17;4.00;;;0.70;99.00;;;;;;6197644;28;20096;-75
2020/12/14 03:48:32;;;;;;;3.53;2.93;;;0.70;99.10;;;;;;6197799;28;20432;-75
2020/12/14 03:51:33;;;;;;;4.53;2.80;;;0.70;99.30;;;;;;6197521;28;20414;-75
2020/12/14 03:54:34;;;;;;;22.20;4.63;;;0.80;99.40;;;;;;6197371;28;20157;-75
2020/12/14 03:57:36;;;;;;;8.07;2.63;;;0.90;99.40;;;;;;6197315;28;20133;-75
2020/12/14 04:00:38;;;;;;;3.43;3.13;;;0.90;99.20;;;;;;6196726;28;20407;-74
2020/12/14 04:03:40;;;;;;;5.63;4.33;;;1.00;99.20;;;;;;6197522;28;20480;-75
2020/12/14 04:06:41;;;;;;;4.40;3.00;;;1.10;99.00;;;;;;6196751;28;20445;-75
2020/12/14 04:09:42;;;;;;;3.77;3.20;;;1.10;98.90;;;;;;6197105;28;20174;-75
2020/12/14 04:12:44;;;;;;;3.80;2.90;;;1.10;98.90;;;;;;6196811;28;20426;-75
2020/12/14 04:15:46;;;;;;;4.93;3.43;;;1.10;98.90;;;;;;6197333;28;20408;-75
2020/12/14 04:18:49;;;;;;;8.23;4.63;;;1.10;98.80;;;;;;6196838;28;20137;-75
2020/12/14 04:21:50;;;;;;;6.97;3.53;;;1.00;99.00;;;;;;6196862;28;20530;-75
2020/12/14 04:24:52;;;;;;;5.97;3.70;;;1.00;98.80;;;;;;6196530;28;20381;-75
2020/12/14 04:27:58;;;;;;;5.50;3.57;;;1.00;98.90;;;;;;6196636;28;20058;-76
2020/12/14 04:31:00;;;;;;;3.57;3.07;;;1.00;99.00;;;;;;6196678;28;20046;-75
2020/12/14 04:34:01;;;;;;;5.57;3.27;;;1.00;99.00;;;;;;6196323;28;20077;-76
2020/12/14 04:37:02;;;;;;;7.67;3.30;;;1.00;99.00;;;;;;6196466;28;20046;-75
2020/12/14 04:40:04;;;;;;;7.90;3.60;;;1.10;99.00;;;;;;6196696;28;20168;-76
2020/12/14 04:43:08;;;;;;;5.93;4.13;;;1.10;98.80;;;;;;6196421;28;20050;-76
2020/12/14 04:46:11;;;;;;;5.90;4.07;;;1.10;98.60;;;;;;6196161;28;20508;-75
2020/12/14 04:49:12;;;;;;;3.53;2.63;;;1.10;98.60;;;;;;6196057;28;20128;-76
2020/12/14 04:52:16;;;;;;;4.00;3.03;;;1.20;98.70;;;;;;6196446;28;20069;-75
2020/12/14 04:55:20;;;;;;;5.43;3.20;;;1.20;98.70;;;;;;6196143;28;20046;-76
2020/12/14 04:58:22;;;;;;;5.93;3.27;;;1.20;98.60;;;;;;6195858;28;20046;-76
2020/12/14 05:01:24;;;;;;;5.07;3.50;;;1.30;98.60;;;;;;6196587;28;20128;-76
2020/12/14 05:04:26;;;;;;;7.27;4.20;;;1.20;98.50;;;;;;6196843;28;20137;-76
2020/12/14 05:07:41;;;;;;;4.80;3.27;;;1.20;98.60;;;;;;6195815;28;20058;-76
2020/12/14 05:10:43;;;;;;;4.70;4.20;;;1.20;98.60;;;;;;6195345;28;20475;-75
2020/12/14 05:13:45;;;;;;;4.63;3.40;;;1.20;98.80;;;;;;6195642;28;20058;-76
2020/12/14 05:16:46;;;;;;;5.00;3.70;;;1.20;98.90;;;;;;6195827;28;20053;-76
2020/12/14 05:19:48;;;;;;;6.27;4.00;;;1.30;98.90;;;;;;6195907;28;20606;-75
2020/12/14 05:23:00;;;;;;;3.87;2.93;;;1.40;98.90;;;;;;6195763;28;20125;-76
2020/12/14 05:26:05;;;;;;;3.47;2.80;;;1.50;98.80;;;;;;6195687;28;20057;-75
2020/12/14 05:29:15;;;;;;;4.40;3.23;;;1.40;98.70;;;;;;6195352;28;20504;-75
2020/12/14 05:32:18;;;;;;;7.37;3.20;;;1.50;98.60;;;;;;6196073;28;20411;-76
2020/12/14 05:35:19;;;;;;;3.87;3.40;;;1.40;98.60;;;;;;6195814;28;20046;-75
2020/12/14 05:38:22;;;;;;;3.37;3.07;;;1.40;98.70;;;;;;6195062;28;20574;-76
2020/12/14 05:41:26;;;;;;;4.50;3.73;;;1.40;98.80;;;;;;6195793;28;20165;-75
2020/12/14 05:44:29;;;;;;;3.77;3.40;;;1.30;98.90;;;;;;6195855;28;20050;-76
2020/12/14 05:47:31;;;;;;;3.67;3.13;;;1.30;98.90;;;;;;6195295;28;20043;-75
2020/12/14 05:50:32;;;;;;;5.00;3.37;;;1.30;99.20;;;;;;6195363;28;20133;-76
2020/12/14 05:53:36;;;;;;;4.97;3.27;;;1.40;99.50;;;;;;6195134;28;20042;-75
2020/12/14 05:56:38;;;;;;;6.50;3.53;;;1.60;99.40;;;;;;6195730;28;20058;-75
2020/12/14 05:59:42;;;;;;;6.87;3.23;;;1.70;99.50;;;;;;6195661;28;20053;-75
2020/12/14 06:02:44;;;;;;;4.53;3.30;;;1.80;99.20;;;;;;6195513;28;20129;-75
2020/12/14 06:05:47;;;;;;;4.17;3.50;;;1.90;99.10;;;;;;6195066;28;20062;-76
2020/12/14 06:09:04;;;;;;;4.37;3.97;;;2.00;98.90;;;;;;6195009;28;20104;-75
2020/12/14 06:12:11;;;;;;;5.75;3.22;;;2.10;98.70;;;;;;6194010;28;20054;-76
2020/12/14 06:15:16;;;;;;;6.50;3.60;;;2.10;98.80;;;;;;6195445;28;20159;-76
2020/12/14 06:18:22;;;;;;;4.20;3.33;;;2.20;98.70;;;;;;6194495;28;20051;-76
2020/12/14 06:21:29;;;;;;;5.47;4.17;;;2.30;98.90;;;;;;6195718;28;20109;-75
2020/12/14 06:24:33;;;;;;;3.50;2.88;;;2.50;98.90;;;;;;6199468;28;20655;-76
2020/12/14 06:27:34;;;;;;;4.07;3.63;;;2.70;98.80;;;;;;6199713;28;20050;-75
2020/12/14 06:30:36;;;;;;;6.87;3.10;;;2.80;98.00;;;;;;6200508;28;20062;-75
2020/12/14 06:33:39;;;;;;;3.47;3.17;;;2.80;98.10;;;;;;6200526;28;20066;-75
2020/12/14 06:36:41;;;;;;;6.80;3.53;;;2.90;97.90;;;;;;6199635;28;20144;-75
2020/12/14 06:39:45;;;;;;;6.93;4.03;;;2.90;97.80;;;;;;6199824;28;20596;-75
2020/12/14 06:42:46;;;;;;;3.63;3.17;;;2.80;97.90;;;;;;6198866;28;20456;-75
2020/12/14 06:45:55;;;;;;;3.03;2.50;;;2.90;97.70;;;;;;6198878;28;20516;-76
2020/12/14 06:48:56;;;;;;;6.47;4.10;;;2.90;97.80;;;;;;6198528;28;20043;-75
2020/12/14 06:51:58;;;;;;;5.23;3.60;;;2.80;97.60;;;;;;6199423;28;20132;-76
2020/12/14 06:54:59;;;;;;;4.43;3.80;;;2.80;97.40;;;;;;6198645;28;20118;-75
2020/12/14 06:58:01;;;;;;;6.00;2.90;;;2.80;97.60;;;;;;6198168;28;20166;-75
2020/12/14 07:01:04;;;;;;;6.37;3.50;;;2.80;97.70;;;;;;6198368;28;20043;-75
2020/12/14 07:04:26;;;;;;;14.73;3.00;;;2.80;97.50;;;;;;6198833;28;22493;-75
2020/12/14 07:07:34;;;;;;;5.20;2.93;;;2.80;97.50;;;;;;6217086;28;20050;-75
2020/12/14 07:10:35;;;;;;;3.95;3.17;;;2.80;97.60;;;;;;6221925;28;20050;-75
2020/12/14 07:13:37;;;;;;;4.40;3.37;;;2.80;97.60;;;;;;6222004;28;20038;-75
2020/12/14 07:16:41;;;;;;;5.10;3.83;;;2.80;97.50;;;;;;6222029;28;20132;-75
2020/12/14 07:19:45;;;;;;;6.33;2.83;;;2.80;97.40;;;;;;6222523;28;20100;-75
2020/12/14 07:22:49;;;;;;;5.77;3.10;;;2.90;97.70;;;;;;6222006;28;20127;-76
2020/12/14 07:25:54;;;;;;;4.40;2.83;;;2.90;97.70;;;;;;6222171;28;20056;-75
2020/12/14 07:28:55;;;;;;;3.53;2.63;;;2.90;97.50;;;;;;6221356;28;20570;-75
2020/12/14 07:32:03;;;;;;;5.43;3.27;;;3.00;97.70;;;;;;6222046;28;20081;-75
2020/12/14 07:35:06;;;;;;;5.83;4.77;;;3.10;97.70;;;;;;6221201;28;20053;-75
2020/12/14 07:38:11;;;;;;;5.50;4.80;;;3.10;97.50;;;;;;6221599;28;20566;-75
2020/12/14 07:41:13;;;;;;;6.90;3.63;;;3.20;97.60;;;;;;6221724;28;20041;-75
2020/12/14 07:44:15;;;;;;;5.60;3.20;;;3.20;97.70;;;;;;6222948;28;20111;-75
2020/12/14 07:47:20;;;;;;;6.93;3.57;;;3.30;97.60;;;;;;6221954;28;20741;-75
2020/12/14 07:50:23;;;;;;;5.57;3.03;;;3.30;97.60;;;;;;6222131;28;20052;-73
2020/12/14 07:53:24;;;;;;;4.40;3.90;;;3.40;97.70;;;;;;6221694;28;20427;-73
2020/12/14 07:56:26;;;;;;;4.18;3.03;;;3.50;97.80;;;;;;6222067;28;20076;-73
2020/12/14 07:59:28;;;;;;;5.82;3.55;;;3.60;97.80;;;;;;6218917;28;20084;-73
2020/12/14 08:02:31;;;;;;;5.43;3.83;;;3.70;97.70;;;;;;6221354;28;20053;-74
2020/12/14 08:05:33;;;;;;;3.17;2.87;;;3.70;97.30;;;;;;6221638;28;20526;-74
2020/12/14 08:08:36;;;;;;;4.17;3.40;;;3.70;97.30;;;;;;6222007;28;20050;-74
2020/12/14 08:11:37;;;;;;;8.60;4.50;;;3.80;97.50;;;;;;6221449;28;20515;-74
2020/12/14 08:14:39;;;;;;;7.90;4.90;;;3.90;97.50;;;;;;6221046;28;20129;-74
2020/12/14 08:17:42;;;;;;;4.97;4.25;;;4.00;97.50;;;;;;6220772;28;20042;-74
2020/12/14 08:20:43;;;;;;;3.85;3.50;;;4.20;97.50;;;;;;6220903;28;20049;-74
2020/12/14 08:23:44;;;;;;;7.80;3.60;;;4.30;97.30;;;;;;6221373;28;20049;-74
2020/12/14 08:26:48;;;;;;;4.28;2.72;;;4.50;97.20;;;;;;6220763;28;20057;-75
2020/12/14 08:29:57;;;;;;;3.92;2.67;;;4.80;96.80;;;;;;6221166;28;20046;-74
2020/12/14 08:33:10;;;;;;;5.00;3.20;;;5.00;97.10;;;;;;6220918;28;20450;-74
2020/12/14 08:36:12;;;;;;;5.85;2.67;;;5.30;96.70;;;;;;6221256;28;20054;-74
2020/12/14 08:39:13;;;;;;;3.03;2.45;;;5.30;96.20;;;;;;6220600;28;20050;-75
2020/12/14 08:42:17;;;;;;;3.60;2.65;;;5.50;96.10;;;;;;6220834;28;20147;-75
2020/12/14 08:45:19;;;;;;;6.00;3.25;;;5.60;95.40;;;;;;6220388;28;20046;-75
2020/12/14 08:48:21;;;;;;;3.72;2.03;;;5.60;95.40;;;;;;6219724;28;20508;-75
2020/12/14 08:51:24;;;;;;;5.30;3.58;;;5.70;95.20;;;;;;6220596;28;20049;-75
2020/12/14 08:54:27;;;;;;;5.80;2.42;;;5.70;95.10;;;;;;6219440;28;20048;-75
2020/12/14 08:57:29;;;;;;;2.60;2.20;;;5.80;95.00;;;;;;6220489;28;20049;-75
2020/12/14 09:00:31;;;;;;;6.10;2.67;;;5.70;94.90;;;;;;6220856;28;20046;-75
2020/12/14 09:03:45;;;;;;;7.65;2.88;;;5.80;94.80;;;;;;6217029;28;20050;-75
2020/12/14 09:06:46;;;;;;;4.07;2.60;;;5.80;94.80;;;;;;6216546;28;20045;-75
2020/12/14 09:09:47;;;;;;;3.65;2.83;;;5.90;95.00;;;;;;6218699;28;20049;-74
2020/12/14 09:12:49;;;;;;;6.13;2.17;;;6.00;95.00;;;;;;6217221;28;20184;-74
2020/12/14 09:15:58;;;;;;;6.32;2.90;;;6.00;95.00;;;;;;6219509;28;20048;-75
2020/12/14 09:19:01;;;;;;;3.33;2.45;;;6.10;94.50;;;;;;6217731;28;20049;-75
2020/12/14 09:22:02;;;;;;;5.03;3.10;;;6.40;94.30;;;;;;6218844;28;20647;-75
2020/12/14 09:25:07;;;;;;;3.78;2.97;;;6.70;92.80;;;;;;6217779;28;20042;-75
2020/12/14 09:28:08;;;;;;;3.92;2.85;;;6.80;92.20;;;;;;6215883;28;20482;-74
2020/12/14 09:31:10;;;;;;;5.07;3.20;;;6.90;92.70;;;;;;6218877;28;20128;-74
2020/12/14 09:34:12;;;;;;;6.05;3.72;;;7.00;92.50;;;;;;6218153;28;20415;-75
2020/12/14 09:37:13;;;;;;;3.10;2.80;;;7.10;92.00;;;;;;6219454;28;20400;-75
2020/12/14 09:40:15;;;;;;;4.30;3.90;;;7.20;91.60;;;;;;6219239;28;20554;-75
2020/12/14 09:43:16;;;;;;;7.20;2.83;;;7.30;91.40;;;;;;6219415;28;20042;-74
2020/12/14 09:46:17;;;;;;;9.98;3.60;;;7.30;91.50;;;;;;6218217;28;20530;-74
2020/12/14 09:49:20;;;;;;;5.72;3.40;;;7.30;91.00;;;;;;6218337;28;20125;-74
2020/12/14 09:52:21;;;;;;;4.43;3.65;;;7.40;91.10;;;;;;6219070;28;20165;-74
2020/12/14 09:55:22;;;;;;;4.03;3.58;;;7.50;90.70;;;;;;6218474;28;20124;-75
2020/12/14 09:58:23;;;;;;;5.35;3.88;;;7.60;90.60;;;;;;6220677;28;20128;-74
2020/12/14 10:01:27;;;;;;;3.80;2.95;;;7.60;90.30;;;;;;6223470;28;20169;-74
2020/12/14 10:04:30;;;;;;;7.15;3.97;;;7.70;90.40;;;;;;6223407;28;20045;-74
2020/12/14 10:07:31;;;;;;;10.95;5.10;;;7.80;90.30;;;;;;6222357;28;20064;-74
2020/12/14 10:10:32;;;;;;;9.35;3.40;;;8.00;90.20;;;;;;6222735;28;20149;-74
2020/12/14 10:13:34;;;;;;;6.68;4.18;;;8.00;89.60;;;;;;6221162;28;20395;-74
2020/12/14 10:16:36;;;;;;;4.95;3.75;;;8.10;88.80;;;;;;6222788;28;20050;-74
2020/12/14 10:19:38;;;;;;;4.18;2.80;;;8.20;87.70;;;;;;6262919;22;20053;-76
2020/12/14 10:22:39;;;;;;;6.25;3.20;;;8.20;86.30;;;;;;6270621;28;20458;-77
2020/12/14 10:25:42;;;;;;;5.45;3.00;;;8.20;86.60;;;;;;6263983;28;20037;-76
2020/12/14 10:28:43;;;;;;;5.35;3.33;;;8.20;86.40;;;;;;6272710;28;20053;-77
2020/12/14 10:31:45;;;;;;;3.40;2.40;;;8.20;86.50;;;;;;6270684;28;20044;-76
2020/12/14 10:34:47;;;;;;;4.15;2.33;;;8.30;86.80;;;;;;6261638;28;20495;-76
2020/12/14 10:37:48;;;;;;;5.03;2.33;;;8.40;86.60;;;;;;6266670;28;20041;-76
2020/12/14 10:40:50;;;;;;;6.25;2.97;;;8.60;85.50;;;;;;6266673;28;20048;-76
2020/12/14 10:43:51;;;;;;;5.25;2.72;;;;;;;;;;6273952;28;20056;-76
2020/12/14 10:46:54;;;;;;;4.20;2.90;;;9.20;80.40;;;;;;6258862;28;20045;-76
2020/12/14 10:49:56;;;;;;;5.50;3.30;;;9.60;78.00;;;;;;6269488;28;20052;-76
2020/12/14 10:52:57;;;;;;;6.32;3.58;;;10.10;77.10;;;;;;6266804;28;20126;-76
2020/12/14 10:56:00;;;;;;;3.80;2.50;;;10.50;74.80;;;;;;6265937;28;20068;-76
2020/12/14 10:59:01;;;;;;;3.85;3.17;;;10.80;73.70;;;;;;6266026;28;20521;-76
2020/12/14 11:02:02;;;;;;;4.00;3.60;;;11.10;72.80;;;;;;6269996;28;20084;-76
2020/12/14 11:05:05;;;;;;;6.78;3.50;;;11.80;71.60;;;;;;6266556;28;20098;-76
2020/12/14 11:08:07;;;;;;;9.18;3.80;;;11.90;71.20;;;;;;6272292;28;20418;-76
2020/12/14 11:11:08;;;;;;;6.35;4.03;;;12.40;67.90;;;;;;6270796;28;20044;-76
2020/12/14 11:14:10;;;;;;;4.55;3.72;;;12.50;66.40;;;;;;6264649;28;20087;-76
2020/12/14 11:17:11;;;;;;;6.45;5.30;;;12.90;65.90;;;;;;6268854;28;20041;-76
2020/12/14 11:20:15;;;;;;;5.20;3.78;;;13.10;66.70;;;;;;6273386;28;20072;-76
2020/12/14 11:23:16;;;;;;;7.43;4.40;;;13.20;66.00;;;;;;6269270;28;20045;-76
2020/12/14 11:26:17;;;;;;;7.80;3.67;;;13.10;66.50;;;;;;6268555;28;20065;-76
2020/12/14 11:29:19;;;;;;;4.65;3.95;;;12.90;67.40;;;;;;6266479;28;20045;-76
2020/12/14 11:32:20;;;;;;;4.43;2.88;;;12.70;67.80;;;;;;6266286;28;20131;-76
2020/12/14 11:35:22;;;;;;;5.03;4.25;;;12.60;67.20;;;;;;6267935;28;20119;-76
2020/12/14 11:38:24;;;;;;;4.85;2.45;;;12.70;66.20;;;;;;6267864;28;20123;-76
2020/12/14 11:41:26;;;;;;;4.20;3.47;;;13.00;66.80;;;;;;6265499;28;20065;-75
2020/12/14 11:44:27;;;;;;;6.45;4.30;;;13.20;64.80;;;;;;6266459;28;20048;-76
2020/12/14 11:47:28;;;;;;;4.78;3.92;;;13.40;63.50;;;;;;6270588;28;20049;-76
2020/12/14 11:50:32;;;;;;;4.68;3.90;;;13.40;64.00;;;;;;6268465;28;20059;-76
2020/12/14 11:53:33;;;;;;;7.07;4.85;;;13.30;64.20;;;;;;6270868;28;20162;-76
2020/12/14 11:56:34;;;;;;;3.90;3.45;;;13.10;64.60;;;;;;6271926;28;20060;-76
2020/12/14 11:59:36;;;;;;;4.88;3.85;;;13.00;64.50;;;;;;6265020;28;20080;-76
2020/12/14 12:02:37;;;;;;;7.80;7.00;;;13.00;63.50;;;;;;6270789;28;20041;-75
2020/12/14 12:05:39;;;;;;;4.50;3.75;;;12.90;63.90;;;;;;6267393;28;20044;-76
2020/12/14 12:08:40;;;;;;;5.85;4.18;;;13.00;63.50;;;;;;6264739;28;20395;-76
2020/12/14 12:11:42;;;;;;;5.85;4.47;;;13.10;64.50;;;;;;6265349;28;20044;-76
2020/12/14 12:14:44;;;;;;;7.63;4.43;;;13.10;64.40;;;;;;6266431;28;20041;-76
2020/12/14 12:17:45;;;;;;;5.88;4.57;;;13.10;63.40;;;;;;6269311;28;20091;-77
2020/12/14 12:20:47;;;;;;;8.73;7.93;;;13.00;64.50;;;;;;6265294;28;20140;-76
2020/12/14 12:23:49;;;;;;;9.35;5.22;;;12.70;64.10;;;;;;6267854;28;20457;-76
2020/12/14 12:26:50;;;;;;;6.32;5.70;;;12.80;65.40;;;;;;6260863;28;20149;-76
2020/12/14 12:29:52;;;;;;;13.93;6.85;;;12.80;65.10;;;;;;6266278;28;20041;-75
2020/12/14 12:32:53;;;;;;;8.13;4.78;;;12.80;64.90;;;;;;6261874;28;20139;-76
2020/12/14 12:35:55;;;;;;;6.93;5.38;;;12.60;65.80;;;;;;6263811;28;20032;-76
2020/12/14 12:38:56;;;;;;;5.65;3.47;;;12.50;66.00;;;;;;6261087;28;20069;-76
2020/12/14 12:41:58;;;;;;;4.38;3.85;;;12.20;66.30;;;;;;6267002;28;20117;-76
2020/12/14 12:44:59;;;;;;;3.92;3.10;;;12.00;67.10;;;;;;6266576;28;20045;-77
2020/12/14 12:48:01;;;;;;;4.50;3.55;;;11.80;67.70;;;;;;6269065;28;20041;-76
2020/12/14 12:51:06;;;;;;;5.78;2.90;;;11.60;67.90;;;;;;6266172;28;20072;-77
2020/12/14 12:54:07;;;;;;;17.75;4.55;;;11.40;68.00;;;;;;6262987;28;20123;-77
2020/12/14 12:57:09;;;;;;;4.53;3.72;;;11.20;69.40;;;;;;6268385;28;20087;-77
2020/12/14 13:00:10;;;;;;;4.45;3.80;;;11.20;68.80;;;;;;6272697;28;20044;-78
2020/12/14 13:03:11;;;;;;;5.53;3.17;;;11.10;68.30;;;;;;6266508;28;20053;-78
2020/12/14 13:06:14;;;;;;;3.97;3.60;;;11.00;68.40;;;;;;6272597;28;20048;-78
2020/12/14 13:09:15;;;;;;;4.75;3.63;;;10.90;68.70;;;;;;6269153;28;20051;-78
2020/12/14 13:12:18;;;;;;;5.63;3.20;;;10.80;69.10;;;;;;6272067;28;20190;-77
2020/12/14 13:15:19;;;;;;;3.47;2.90;;;10.80;70.50;;;;;;6266449;28;20420;-77
2020/12/14 13:18:21;;;;;;;5.15;3.55;;;10.70;70.60;;;;;;6261899;28;20053;-78
2020/12/14 13:21:24;;;;;;;4.43;2.92;;;10.70;68.70;;;;;;6267450;28;20045;-77
2020/12/14 13:24:26;;;;;;;2.63;2.40;;;10.50;68.70;;;;;;6268553;28;20110;-78
2020/12/14 13:27:27;;;;;;;3.20;2.78;;;10.40;69.80;;;;;;6261454;28;20049;-77
2020/12/14 13:30:28;;;;;;;4.25;2.60;;;10.30;69.20;;;;;;6263296;28;20167;-78
2020/12/14 13:33:30;;;;;;;4.38;2.88;;;10.30;69.90;;;;;;6269193;28;20051;-76
2020/12/14 13:36:32;;;;;;;3.65;3.33;;;10.20;70.20;;;;;;6273869;28;20040;-76
2020/12/14 13:39:33;;;;;;;3.90;3.40;;;10.10;71.50;;;;;;6273108;28;20438;-76
2020/12/14 13:42:34;;;;;;;3.92;2.97;;;10.10;71.40;;;;;;6266085;28;20128;-76
2020/12/14 13:45:37;;;;;;;5.07;3.67;;;10.00;71.90;;;;;;6267323;28;20037;-76
2020/12/14 13:48:39;;;;;;;4.38;3.80;;;9.90;72.30;;;;;;6274716;28;20132;-77
2020/12/14 13:51:41;;;;;;;4.60;3.55;;;9.90;72.70;;;;;;6271411;28;20048;-76
2020/12/14 13:54:43;;;;;;;5.65;4.50;;;9.80;73.40;;;;;;6270443;28;20045;-76
2020/12/14 13:57:44;;;;;;;4.85;4.32;;;9.70;73.80;;;;;;6270084;28;20120;-76
2020/12/14 14:00:45;;;;;;;6.72;4.20;;;9.70;74.80;;;;;;6264966;28;20079;-76
2020/12/14 14:03:47;;;;;;;8.35;3.67;;;9.70;75.00;;;;;;6263757;28;20053;-76
2020/12/14 14:06:50;;;;;;;8.57;4.53;;;9.60;75.50;;;;;;6269756;28;20052;-77
2020/12/14 14:09:51;;;;;;;4.60;3.78;;;9.70;78.20;;;;;;6266653;28;20114;-76
2020/12/14 14:12:52;;;;;;;5.55;3.72;;;9.70;79.50;;;;;;6262768;28;20073;-76
2020/12/14 14:15:54;;;;;;;8.70;3.08;;;9.90;78.20;;;;;;6268085;28;20057;-76
2020/12/14 14:18:55;;;;;;;5.63;3.35;;;10.00;79.40;;;;;;6269927;28;20045;-77
2020/12/14 14:21:58;;;;;;;5.93;3.05;;;10.50;79.00;;;;;;6268883;28;20045;-77
2020/12/14 14:24:59;;;;;;;6.47;3.53;;;11.00;76.60;;;;;;6272057;28;20174;-76
2020/12/14 14:28:00;;;;;;;5.85;3.55;;;11.40;73.90;;;;;;6270989;28;20214;-76
2020/12/14 14:31:02;;;;;;;3.70;2.90;;;11.60;73.50;;;;;;6269345;28;20094;-76
2020/12/14 14:34:03;;;;;;;3.58;3.28;;;11.60;73.80;;;;;;6269750;28;20457;-77
2020/12/14 14:37:06;;;;;;;5.20;3.22;;;11.70;73.60;;;;;;6269348;28;20518;-76
2020/12/14 14:40:08;;;;;;;5.22;3.55;;;11.60;73.00;;;;;;6264275;28;20415;-77
2020/12/14 14:43:10;;;;;;;7.85;5.18;;;11.70;73.20;;;;;;6267349;28;20063;-76
2020/12/14 14:46:11;;;;;;;4.57;4.18;;;11.60;72.70;;;;;;6266525;28;20057;-75
2020/12/14 14:49:13;;;;;;;5.32;4.80;;;11.20;73.10;;;;;;6274609;28;20056;-78
2020/12/14 14:52:15;;;;;;;6.97;4.47;;;10.90;74.00;;;;;;6259891;28;20049;-77
2020/12/14 14:55:16;;;;;;;7.50;4.18;;;10.60;74.50;;;;;;6272713;28;20124;-77
2020/12/14 14:58:18;;;;;;;6.18;4.47;;;10.50;75.20;;;;;;6253002;28;20052;-77
2020/12/14 15:01:23;;;;;;;5.68;4.47;;;10.30;75.60;;;;;;6264224;28;20566;-78
2020/12/14 15:04:24;;;;;;;8.10;3.42;;;10.10;75.50;;;;;;6271510;28;20082;-77
2020/12/14 15:07:26;;;;;;;7.60;4.50;;;10.00;75.70;;;;;;6269095;28;20052;-77
2020/12/14 15:10:28;;;;;;;9.63;4.43;;;9.90;76.40;;;;;;6266641;28;20617;-77
2020/12/14 15:13:29;;;;;;;5.30;3.78;;;9.70;77.00;;;;;;6268172;28;20520;-77
2020/12/14 15:16:30;;;;;;;3.72;3.38;;;9.70;77.60;;;;;;6272150;28;20179;-77
2020/12/14 15:19:32;;;;;;;6.18;3.10;;;9.50;78.10;;;;;;6269553;28;20059;-77
2020/12/14 15:22:34;;;;;;;5.63;3.80;;;9.40;78.70;;;;;;6269720;28;20067;-76
2020/12/14 15:25:35;;;;;;;7.63;5.55;;;9.30;79.20;;;;;;6265767;28;20072;-76
2020/12/14 15:28:37;;;;;;;9.73;5.88;;;9.30;79.50;;;;;;6263555;28;20171;-76
2020/12/14 15:31:38;;;;;;;8.27;4.95;;;9.30;79.80;;;;;;6269009;28;20053;-75
2020/12/14 15:34:40;;;;;;;7.88;5.38;;;9.20;80.10;;;;;;6266044;28;20049;-75
2020/12/14 15:37:42;;;;;;;10.10;6.50;;;9.20;80.20;;;;;;6268904;28;20410;-77
2020/12/14 15:40:43;;;;;;;6.68;4.95;;;9.10;80.20;;;;;;6264307;28;20045;-76
2020/12/14 15:43:45;;;;;;;7.70;4.07;;;9.20;80.40;;;;;;6269325;28;20170;-77
2020/12/14 15:46:46;;;;;;;7.78;4.43;;;9.10;80.50;;;;;;6256680;28;20056;-76
2020/12/14 15:49:48;;;;;;;8.27;4.38;;;9.10;80.90;;;;;;6267685;28;20137;-76
2020/12/14 15:52:50;;;;;;;7.30;6.10;;;9.00;81.20;;;;;;6265213;28;20179;-76
2020/12/14 15:55:51;;;;;;;11.68;6.63;;;8.90;81.60;;;;;;6271883;28;20062;-76
2020/12/14 15:58:53;;;;;;;8.93;6.40;;;8.90;81.70;;;;;;6270274;28;20144;-76